sensor_id;sensor_type;location;lat;lon;timestamp;P1;durP1;ratioP1;P2;durP2;ratioP2
44068;SDS011;29738;51.234;5.484;2022-08-04T00:01:38;6.88;;;3.20;;
44068;SDS011;29738;51.234;5.484;2022-08-04T00:04:23;8.30;;;3.13;;
44068;SDS011;29738;51.234;5.484;2022-08-04T00:12:24;6.25;;;3.67;;
44068;SDS011;29738;51.234;5.484;2022-08-04T00:14:52;9.00;;;3.60;;
44068;SDS011;29738;51.234;5.484;2022-08-04T00:17:23;8.63;;;3.83;;
44068;SDS011;29738;51.234;5.484;2022-08-04T00:19:56;8.80;;;3.83;;
44068;SDS011;29738;51.234;5.484;2022-08-04T00:22:29;8.93;;;3.92;;
44068;SDS011;29738;51.234;5.484;2022-08-04T00:24:55;11.95;;;3.88;;
44068;SDS011;29738;51.234;5.484;2022-08-04T00:27:21;9.77;;;3.75;;
44068;SDS011;29738;51.234;5.484;2022-08-04T00:29:48;6.63;;;3.65;;
44068;SDS011;29738;51.234;5.484;2022-08-04T00:32:13;6.97;;;3.20;;
44068;SDS011;29738;51.234;5.484;2022-08-04T00:34:42;8.10;;;3.47;;
44068;SDS011;29738;51.234;5.484;2022-08-04T00:37:08;10.90;;;3.70;;
44068;SDS011;29738;51.234;5.484;2022-08-04T00:39:34;8.45;;;3.00;;
44068;SDS011;29738;51.234;5.484;2022-08-04T00:50:38;6.95;;;2.72;;
44068;SDS011;29738;51.234;5.484;2022-08-04T01:12:42;7.25;;;2.50;;
44068;SDS011;29738;51.234;5.484;2022-08-04T01:15:39;9.00;;;2.88;;
44068;SDS011;29738;51.234;5.484;2022-08-04T01:18:20;7.63;;;2.55;;
44068;SDS011;29738;51.234;5.484;2022-08-04T01:23:49;6.18;;;2.80;;
44068;SDS011;29738;51.234;5.484;2022-08-04T01:26:34;6.55;;;2.83;;
44068;SDS011;29738;51.234;5.484;2022-08-04T01:29:22;9.20;;;3.00;;
44068;SDS011;29738;51.234;5.484;2022-08-04T01:31:59;5.70;;;2.53;;
44068;SDS011;29738;51.234;5.484;2022-08-04T01:34:36;7.13;;;2.72;;
44068;SDS011;29738;51.234;5.484;2022-08-04T01:37:18;6.65;;;2.78;;
44068;SDS011;29738;51.234;5.484;2022-08-04T01:40:05;6.65;;;2.60;;
44068;SDS011;29738;51.234;5.484;2022-08-04T01:42:35;13.25;;;2.90;;
44068;SDS011;29738;51.234;5.484;2022-08-04T01:45:07;8.13;;;3.10;;
44068;SDS011;29738;51.234;5.484;2022-08-04T01:47:34;5.78;;;2.58;;
44068;SDS011;29738;51.234;5.484;2022-08-04T01:50:06;9.88;;;2.70;;
44068;SDS011;29738;51.234;5.484;2022-08-04T01:52:34;8.65;;;2.83;;
44068;SDS011;29738;51.234;5.484;2022-08-04T01:55:03;7.38;;;2.85;;
44068;SDS011;29738;51.234;5.484;2022-08-04T01:57:33;7.90;;;2.17;;
44068;SDS011;29738;51.234;5.484;2022-08-04T02:00:06;8.80;;;2.53;;
44068;SDS011;29738;51.234;5.484;2022-08-04T02:02:33;9.43;;;2.70;;
44068;SDS011;29738;51.234;5.484;2022-08-04T02:04:59;6.60;;;2.47;;
44068;SDS011;29738;51.234;5.484;2022-08-04T02:13:19;8.02;;;2.65;;
44068;SDS011;29738;51.234;5.484;2022-08-04T02:16:03;7.22;;;2.50;;
44068;SDS011;29738;51.234;5.484;2022-08-04T02:19:13;6.05;;;2.42;;
44068;SDS011;29738;51.234;5.484;2022-08-04T02:21:45;5.18;;;2.33;;
44068;SDS011;29738;51.234;5.484;2022-08-04T02:24:15;9.20;;;2.78;;
44068;SDS011;29738;51.234;5.484;2022-08-04T02:26:47;9.93;;;2.60;;
44068;SDS011;29738;51.234;5.484;2022-08-04T02:29:29;6.30;;;2.40;;
44068;SDS011;29738;51.234;5.484;2022-08-04T02:32:04;6.03;;;2.33;;
44068;SDS011;29738;51.234;5.484;2022-08-04T02:34:41;9.32;;;2.80;;
44068;SDS011;29738;51.234;5.484;2022-08-04T02:37:13;8.52;;;2.58;;
44068;SDS011;29738;51.234;5.484;2022-08-04T02:39:41;6.60;;;2.60;;
44068;SDS011;29738;51.234;5.484;2022-08-04T02:42:09;5.90;;;2.25;;
44068;SDS011;29738;51.234;5.484;2022-08-04T02:44:38;6.10;;;2.45;;
44068;SDS011;29738;51.234;5.484;2022-08-04T02:47:04;9.02;;;3.13;;
44068;SDS011;29738;51.234;5.484;2022-08-04T02:49:35;6.72;;;2.58;;
44068;SDS011;29738;51.234;5.484;2022-08-04T02:52:01;12.32;;;3.85;;
44068;SDS011;29738;51.234;5.484;2022-08-04T02:54:31;9.10;;;2.78;;
44068;SDS011;29738;51.234;5.484;2022-08-04T02:57:02;7.60;;;2.80;;
44068;SDS011;29738;51.234;5.484;2022-08-04T02:59:37;9.38;;;2.80;;
44068;SDS011;29738;51.234;5.484;2022-08-04T03:02:09;7.28;;;2.63;;
44068;SDS011;29738;51.234;5.484;2022-08-04T03:04:48;7.20;;;2.72;;
44068;SDS011;29738;51.234;5.484;2022-08-04T03:10:25;6.28;;;2.33;;
44068;SDS011;29738;51.234;5.484;2022-08-04T03:26:45;6.45;;;2.40;;
44068;SDS011;29738;51.234;5.484;2022-08-04T03:29:45;10.63;;;3.42;;
44068;SDS011;29738;51.234;5.484;2022-08-04T04:20:47;8.88;;;2.63;;
44068;SDS011;29738;51.234;5.484;2022-08-04T04:26:29;8.05;;;2.40;;
44068;SDS011;29738;51.234;5.484;2022-08-04T04:29:42;12.15;;;3.45;;
44068;SDS011;29738;51.234;5.484;2022-08-04T04:40:14;7.10;;;2.65;;
44068;SDS011;29738;51.234;5.484;2022-08-04T04:43:12;8.63;;;2.67;;
44068;SDS011;29738;51.234;5.484;2022-08-04T04:45:48;6.70;;;2.38;;
44068;SDS011;29738;51.234;5.484;2022-08-04T04:56:27;8.48;;;2.88;;
44068;SDS011;29738;51.234;5.484;2022-08-04T04:59:09;7.13;;;2.53;;
44068;SDS011;29738;51.234;5.484;2022-08-04T05:01:56;6.13;;;2.42;;
44068;SDS011;29738;51.234;5.484;2022-08-04T05:10:44;7.20;;;2.92;;
44068;SDS011;29738;51.234;5.484;2022-08-04T05:13:41;7.78;;;3.42;;
44068;SDS011;29738;51.234;5.484;2022-08-04T05:16:39;7.53;;;2.60;;
44068;SDS011;29738;51.234;5.484;2022-08-04T05:21:48;5.85;;;3.03;;
44068;SDS011;29738;51.234;5.484;2022-08-04T05:24:16;9.13;;;2.30;;
44068;SDS011;29738;51.234;5.484;2022-08-04T05:26:46;8.38;;;2.90;;
44068;SDS011;29738;51.234;5.484;2022-08-04T05:29:17;9.23;;;2.80;;
44068;SDS011;29738;51.234;5.484;2022-08-04T05:32:07;8.50;;;3.10;;
44068;SDS011;29738;51.234;5.484;2022-08-04T05:34:43;7.18;;;2.53;;
44068;SDS011;29738;51.234;5.484;2022-08-04T05:37:16;8.13;;;2.97;;
44068;SDS011;29738;51.234;5.484;2022-08-04T05:39:48;8.45;;;2.55;;
44068;SDS011;29738;51.234;5.484;2022-08-04T05:42:27;8.70;;;3.45;;
44068;SDS011;29738;51.234;5.484;2022-08-04T05:44:54;10.02;;;3.33;;
44068;SDS011;29738;51.234;5.484;2022-08-04T05:47:21;9.90;;;3.25;;
44068;SDS011;29738;51.234;5.484;2022-08-04T05:49:49;9.52;;;3.22;;
44068;SDS011;29738;51.234;5.484;2022-08-04T05:52:15;7.57;;;3.17;;
44068;SDS011;29738;51.234;5.484;2022-08-04T05:54:43;7.93;;;2.88;;
44068;SDS011;29738;51.234;5.484;2022-08-04T05:57:10;7.63;;;3.00;;
44068;SDS011;29738;51.234;5.484;2022-08-04T05:59:38;10.48;;;3.75;;
44068;SDS011;29738;51.234;5.484;2022-08-04T06:02:06;7.95;;;3.50;;
44068;SDS011;29738;51.234;5.484;2022-08-04T06:04:34;11.50;;;3.88;;
44068;SDS011;29738;51.234;5.484;2022-08-04T06:07:06;6.80;;;3.00;;
44068;SDS011;29738;51.234;5.484;2022-08-04T06:09:33;6.43;;;3.20;;
44068;SDS011;29738;51.234;5.484;2022-08-04T06:11:59;8.45;;;3.45;;
44068;SDS011;29738;51.234;5.484;2022-08-04T06:14:29;10.00;;;3.75;;
44068;SDS011;29738;51.234;5.484;2022-08-04T06:19:26;7.40;;;3.60;;
44068;SDS011;29738;51.234;5.484;2022-08-04T06:21:54;9.20;;;3.58;;
44068;SDS011;29738;51.234;5.484;2022-08-04T06:24:23;8.02;;;3.67;;
44068;SDS011;29738;51.234;5.484;2022-08-04T06:26:51;8.73;;;3.42;;
44068;SDS011;29738;51.234;5.484;2022-08-04T06:29:20;8.00;;;3.40;;
44068;SDS011;29738;51.234;5.484;2022-08-04T06:32:04;9.45;;;3.75;;
44068;SDS011;29738;51.234;5.484;2022-08-04T06:34:59;9.25;;;3.60;;
44068;SDS011;29738;51.234;5.484;2022-08-04T06:37:26;6.70;;;3.80;;
44068;SDS011;29738;51.234;5.484;2022-08-04T06:39:52;6.35;;;3.38;;
44068;SDS011;29738;51.234;5.484;2022-08-04T06:42:20;8.95;;;3.40;;
44068;SDS011;29738;51.234;5.484;2022-08-04T06:44:48;7.97;;;3.58;;
44068;SDS011;29738;51.234;5.484;2022-08-04T06:47:19;9.48;;;3.80;;
44068;SDS011;29738;51.234;5.484;2022-08-04T06:49:47;8.38;;;3.20;;
44068;SDS011;29738;51.234;5.484;2022-08-04T06:52:15;7.38;;;3.20;;
44068;SDS011;29738;51.234;5.484;2022-08-04T06:54:43;8.43;;;3.30;;
44068;SDS011;29738;51.234;5.484;2022-08-04T06:57:10;10.57;;;4.25;;
44068;SDS011;29738;51.234;5.484;2022-08-04T06:59:45;7.05;;;3.42;;
44068;SDS011;29738;51.234;5.484;2022-08-04T07:02:15;5.70;;;2.95;;
44068;SDS011;29738;51.234;5.484;2022-08-04T07:04:45;8.45;;;3.75;;
44068;SDS011;29738;51.234;5.484;2022-08-04T07:07:12;6.97;;;3.30;;
44068;SDS011;29738;51.234;5.484;2022-08-04T07:09:39;6.35;;;3.17;;
44068;SDS011;29738;51.234;5.484;2022-08-04T07:12:06;6.55;;;3.30;;
44068;SDS011;29738;51.234;5.484;2022-08-04T07:14:33;6.07;;;3.28;;
44068;SDS011;29738;51.234;5.484;2022-08-04T07:17:03;6.70;;;2.83;;
44068;SDS011;29738;51.234;5.484;2022-08-04T07:19:30;7.72;;;3.10;;
44068;SDS011;29738;51.234;5.484;2022-08-04T07:21:59;9.40;;;3.78;;
44068;SDS011;29738;51.234;5.484;2022-08-04T07:24:30;9.70;;;3.30;;
44068;SDS011;29738;51.234;5.484;2022-08-04T07:26:57;6.47;;;3.15;;
44068;SDS011;29738;51.234;5.484;2022-08-04T07:29:23;10.32;;;3.53;;
44068;SDS011;29738;51.234;5.484;2022-08-04T07:31:49;8.23;;;3.13;;
44068;SDS011;29738;51.234;5.484;2022-08-04T07:34:15;7.40;;;3.83;;
44068;SDS011;29738;51.234;5.484;2022-08-04T07:36:44;6.00;;;3.20;;
44068;SDS011;29738;51.234;5.484;2022-08-04T07:39:09;12.80;;;4.45;;
44068;SDS011;29738;51.234;5.484;2022-08-04T07:41:35;10.80;;;5.20;;
44068;SDS011;29738;51.234;5.484;2022-08-04T07:44:02;8.43;;;4.38;;
44068;SDS011;29738;51.234;5.484;2022-08-04T07:46:29;9.55;;;4.32;;
44068;SDS011;29738;51.234;5.484;2022-08-04T07:48:55;9.10;;;4.00;;
44068;SDS011;29738;51.234;5.484;2022-08-04T07:51:22;9.63;;;4.05;;
44068;SDS011;29738;51.234;5.484;2022-08-04T07:53:48;9.32;;;5.15;;
44068;SDS011;29738;51.234;5.484;2022-08-04T07:56:14;9.43;;;5.65;;
44068;SDS011;29738;51.234;5.484;2022-08-04T07:58:41;10.68;;;6.30;;
44068;SDS011;29738;51.234;5.484;2022-08-04T08:01:07;11.18;;;7.55;;
44068;SDS011;29738;51.234;5.484;2022-08-04T08:03:34;14.52;;;7.90;;
44068;SDS011;29738;51.234;5.484;2022-08-04T08:06:02;13.20;;;7.38;;
44068;SDS011;29738;51.234;5.484;2022-08-04T08:08:28;13.23;;;6.40;;
44068;SDS011;29738;51.234;5.484;2022-08-04T08:10:54;10.98;;;6.82;;
44068;SDS011;29738;51.234;5.484;2022-08-04T08:13:20;11.73;;;6.05;;
44068;SDS011;29738;51.234;5.484;2022-08-04T08:15:47;9.63;;;5.25;;
44068;SDS011;29738;51.234;5.484;2022-08-04T08:18:14;10.50;;;6.47;;
44068;SDS011;29738;51.234;5.484;2022-08-04T08:20:42;12.10;;;7.22;;
44068;SDS011;29738;51.234;5.484;2022-08-04T08:23:10;12.30;;;7.80;;
44068;SDS011;29738;51.234;5.484;2022-08-04T08:25:36;11.68;;;6.53;;
44068;SDS011;29738;51.234;5.484;2022-08-04T08:28:02;11.15;;;6.68;;
44068;SDS011;29738;51.234;5.484;2022-08-04T08:30:29;12.13;;;6.15;;
44068;SDS011;29738;51.234;5.484;2022-08-04T08:32:56;10.02;;;6.18;;
44068;SDS011;29738;51.234;5.484;2022-08-04T08:35:23;11.35;;;7.03;;
44068;SDS011;29738;51.234;5.484;2022-08-04T08:37:56;11.50;;;7.15;;
44068;SDS011;29738;51.234;5.484;2022-08-04T08:40:31;11.57;;;6.30;;
44068;SDS011;29738;51.234;5.484;2022-08-04T09:03:09;10.25;;;3.92;;
44068;SDS011;29738;51.234;5.484;2022-08-04T09:06:03;8.85;;;3.75;;
44068;SDS011;29738;51.234;5.484;2022-08-04T09:11:48;8.00;;;3.65;;
44068;SDS011;29738;51.234;5.484;2022-08-04T09:14:25;9.50;;;4.78;;
44068;SDS011;29738;51.234;5.484;2022-08-04T09:16:59;10.60;;;3.70;;
44068;SDS011;29738;51.234;5.484;2022-08-04T09:22:03;7.45;;;3.97;;
44068;SDS011;29738;51.234;5.484;2022-08-04T09:27:21;9.27;;;3.97;;
44068;SDS011;29738;51.234;5.484;2022-08-04T09:29:57;8.93;;;4.50;;
44068;SDS011;29738;51.234;5.484;2022-08-04T09:43:55;8.20;;;3.38;;
44068;SDS011;29738;51.234;5.484;2022-08-04T09:55:29;9.60;;;2.80;;
44068;SDS011;29738;51.234;5.484;2022-08-04T10:01:26;8.70;;;2.33;;
44068;SDS011;29738;51.234;5.484;2022-08-04T10:03:55;5.57;;;2.42;;
44068;SDS011;29738;51.234;5.484;2022-08-04T10:19:59;6.97;;;2.85;;
44068;SDS011;29738;51.234;5.484;2022-08-04T10:22:45;8.63;;;2.53;;
44068;SDS011;29738;51.234;5.484;2022-08-04T10:25:41;9.85;;;3.42;;
44068;SDS011;29738;51.234;5.484;2022-08-04T10:28:14;8.20;;;3.00;;
44068;SDS011;29738;51.234;5.484;2022-08-04T10:30:46;8.02;;;2.70;;
44068;SDS011;29738;51.234;5.484;2022-08-04T10:35:50;10.98;;;2.65;;
44068;SDS011;29738;51.234;5.484;2022-08-04T10:38:28;8.82;;;2.65;;
44068;SDS011;29738;51.234;5.484;2022-08-04T10:47:07;9.70;;;2.47;;
44068;SDS011;29738;51.234;5.484;2022-08-04T10:49:47;7.35;;;2.72;;
44068;SDS011;29738;51.234;5.484;2022-08-04T10:52:21;6.63;;;2.28;;
44068;SDS011;29738;51.234;5.484;2022-08-04T10:57:50;8.35;;;2.60;;
44068;SDS011;29738;51.234;5.484;2022-08-04T11:00:26;7.18;;;2.15;;
44068;SDS011;29738;51.234;5.484;2022-08-04T11:03:06;9.35;;;2.75;;
44068;SDS011;29738;51.234;5.484;2022-08-04T11:11:21;7.45;;;2.42;;
44068;SDS011;29738;51.234;5.484;2022-08-04T11:14:06;8.40;;;2.88;;
44068;SDS011;29738;51.234;5.484;2022-08-04T11:16:41;12.38;;;2.45;;
44068;SDS011;29738;51.234;5.484;2022-08-04T11:21:53;8.93;;;2.50;;
44068;SDS011;29738;51.234;5.484;2022-08-04T11:24:24;9.88;;;2.65;;
44068;SDS011;29738;51.234;5.484;2022-08-04T11:27:00;9.98;;;3.28;;
44068;SDS011;29738;51.234;5.484;2022-08-04T11:32:29;10.60;;;3.03;;
44068;SDS011;29738;51.234;5.484;2022-08-04T11:35:06;9.52;;;2.65;;
44068;SDS011;29738;51.234;5.484;2022-08-04T11:37:48;9.13;;;2.58;;
44068;SDS011;29738;51.234;5.484;2022-08-04T11:40:35;6.90;;;2.80;;
44068;SDS011;29738;51.234;5.484;2022-08-04T11:43:16;9.35;;;3.40;;
44068;SDS011;29738;51.234;5.484;2022-08-04T11:45:54;9.77;;;3.58;;
44068;SDS011;29738;51.234;5.484;2022-08-04T11:49:09;7.10;;;3.20;;
44068;SDS011;29738;51.234;5.484;2022-08-04T11:51:20;7.55;;;2.83;;
44068;SDS011;29738;51.234;5.484;2022-08-04T11:53:47;9.05;;;2.58;;
44068;SDS011;29738;51.234;5.484;2022-08-04T11:56:15;7.05;;;2.63;;
44068;SDS011;29738;51.234;5.484;2022-08-04T11:58:41;7.97;;;2.17;;
44068;SDS011;29738;51.234;5.484;2022-08-04T12:01:17;9.85;;;2.70;;
44068;SDS011;29738;51.234;5.484;2022-08-04T12:06:53;7.00;;;2.20;;
44068;SDS011;29738;51.234;5.484;2022-08-04T12:09:24;8.75;;;2.15;;
44068;SDS011;29738;51.234;5.484;2022-08-04T12:12:07;7.70;;;2.70;;
44068;SDS011;29738;51.234;5.484;2022-08-04T12:14:58;6.95;;;2.05;;
44068;SDS011;29738;51.234;5.484;2022-08-04T12:17:34;9.57;;;2.13;;
44068;SDS011;29738;51.234;5.484;2022-08-04T12:20:07;8.60;;;2.22;;
44068;SDS011;29738;51.234;5.484;2022-08-04T12:22:36;7.90;;;2.30;;
44068;SDS011;29738;51.234;5.484;2022-08-04T12:27:39;7.43;;;2.20;;
44068;SDS011;29738;51.234;5.484;2022-08-04T12:30:12;6.90;;;2.55;;
44068;SDS011;29738;51.234;5.484;2022-08-04T12:32:42;9.02;;;2.80;;
44068;SDS011;29738;51.234;5.484;2022-08-04T12:35:21;7.57;;;2.85;;
44068;SDS011;29738;51.234;5.484;2022-08-04T12:38:10;7.30;;;2.70;;
44068;SDS011;29738;51.234;5.484;2022-08-04T12:40:49;6.40;;;2.30;;
44068;SDS011;29738;51.234;5.484;2022-08-04T12:43:18;9.10;;;3.20;;
44068;SDS011;29738;51.234;5.484;2022-08-04T12:46:06;9.63;;;2.72;;
44068;SDS011;29738;51.234;5.484;2022-08-04T12:48:35;8.73;;;3.20;;
44068;SDS011;29738;51.234;5.484;2022-08-04T12:51:02;7.25;;;2.75;;
44068;SDS011;29738;51.234;5.484;2022-08-04T12:53:32;9.63;;;2.92;;
44068;SDS011;29738;51.234;5.484;2022-08-04T12:56:05;8.50;;;2.75;;
44068;SDS011;29738;51.234;5.484;2022-08-04T12:58:37;6.72;;;3.08;;
44068;SDS011;29738;51.234;5.484;2022-08-04T13:01:10;7.38;;;2.85;;
44068;SDS011;29738;51.234;5.484;2022-08-04T13:03:43;7.50;;;2.78;;
44068;SDS011;29738;51.234;5.484;2022-08-04T13:06:29;11.55;;;3.53;;
44068;SDS011;29738;51.234;5.484;2022-08-04T13:09:02;9.93;;;3.83;;
44068;SDS011;29738;51.234;5.484;2022-08-04T13:11:34;10.38;;;4.50;;
44068;SDS011;29738;51.234;5.484;2022-08-04T13:14:03;8.40;;;4.20;;
44068;SDS011;29738;51.234;5.484;2022-08-04T13:16:32;12.85;;;4.38;;
44068;SDS011;29738;51.234;5.484;2022-08-04T13:18:58;9.25;;;3.85;;
44068;SDS011;29738;51.234;5.484;2022-08-04T13:21:25;8.45;;;3.88;;
44068;SDS011;29738;51.234;5.484;2022-08-04T13:24:12;11.10;;;4.10;;
44068;SDS011;29738;51.234;5.484;2022-08-04T13:26:49;10.43;;;4.00;;
44068;SDS011;29738;51.234;5.484;2022-08-04T13:29:21;6.88;;;3.53;;
44068;SDS011;29738;51.234;5.484;2022-08-04T13:31:50;8.40;;;4.13;;
44068;SDS011;29738;51.234;5.484;2022-08-04T13:34:17;9.25;;;3.65;;
44068;SDS011;29738;51.234;5.484;2022-08-04T13:36:44;10.65;;;4.20;;
44068;SDS011;29738;51.234;5.484;2022-08-04T13:39:14;11.40;;;4.55;;
44068;SDS011;29738;51.234;5.484;2022-08-04T13:41:47;9.05;;;3.58;;
44068;SDS011;29738;51.234;5.484;2022-08-04T13:44:21;8.07;;;3.92;;
44068;SDS011;29738;51.234;5.484;2022-08-04T13:46:51;10.73;;;3.95;;
44068;SDS011;29738;51.234;5.484;2022-08-04T13:49:20;10.00;;;3.72;;
44068;SDS011;29738;51.234;5.484;2022-08-04T13:51:50;8.80;;;4.30;;
44068;SDS011;29738;51.234;5.484;2022-08-04T13:54:16;9.48;;;4.47;;
44068;SDS011;29738;51.234;5.484;2022-08-04T13:56:44;11.85;;;3.60;;
44068;SDS011;29738;51.234;5.484;2022-08-04T13:59:13;11.98;;;3.70;;
44068;SDS011;29738;51.234;5.484;2022-08-04T14:01:41;8.38;;;4.20;;
44068;SDS011;29738;51.234;5.484;2022-08-04T14:04:22;12.35;;;4.88;;
44068;SDS011;29738;51.234;5.484;2022-08-04T14:07:02;7.35;;;3.85;;
44068;SDS011;29738;51.234;5.484;2022-08-04T14:09:38;9.98;;;4.13;;
44068;SDS011;29738;51.234;5.484;2022-08-04T14:12:05;10.43;;;4.95;;
44068;SDS011;29738;51.234;5.484;2022-08-04T14:14:43;10.45;;;4.38;;
44068;SDS011;29738;51.234;5.484;2022-08-04T14:17:17;10.48;;;4.65;;
44068;SDS011;29738;51.234;5.484;2022-08-04T14:19:48;10.57;;;4.90;;
44068;SDS011;29738;51.234;5.484;2022-08-04T14:25:05;7.22;;;3.78;;
44068;SDS011;29738;51.234;5.484;2022-08-04T14:33:07;8.57;;;4.32;;
44068;SDS011;29738;51.234;5.484;2022-08-04T14:35:35;9.18;;;3.88;;
44068;SDS011;29738;51.234;5.484;2022-08-04T14:38:07;10.98;;;4.53;;
44068;SDS011;29738;51.234;5.484;2022-08-04T14:40:34;9.45;;;3.70;;
44068;SDS011;29738;51.234;5.484;2022-08-04T14:43:02;9.80;;;5.07;;
44068;SDS011;29738;51.234;5.484;2022-08-04T14:45:32;8.38;;;4.38;;
44068;SDS011;29738;51.234;5.484;2022-08-04T14:48:12;10.38;;;4.72;;
44068;SDS011;29738;51.234;5.484;2022-08-04T14:50:47;9.75;;;4.13;;
44068;SDS011;29738;51.234;5.484;2022-08-04T14:55:44;6.78;;;3.00;;
44068;SDS011;29738;51.234;5.484;2022-08-04T14:58:19;13.07;;;3.88;;
44068;SDS011;29738;51.234;5.484;2022-08-04T15:00:50;7.35;;;3.00;;
44068;SDS011;29738;51.234;5.484;2022-08-04T15:03:18;9.70;;;3.92;;
44068;SDS011;29738;51.234;5.484;2022-08-04T15:05:46;11.15;;;4.55;;
44068;SDS011;29738;51.234;5.484;2022-08-04T15:08:12;11.38;;;4.20;;
44068;SDS011;29738;51.234;5.484;2022-08-04T15:10:39;9.18;;;3.83;;
44068;SDS011;29738;51.234;5.484;2022-08-04T15:13:06;9.50;;;4.13;;
44068;SDS011;29738;51.234;5.484;2022-08-04T15:15:32;8.38;;;3.78;;
44068;SDS011;29738;51.234;5.484;2022-08-04T15:17:58;10.25;;;5.05;;
44068;SDS011;29738;51.234;5.484;2022-08-04T15:20:24;8.38;;;3.70;;
44068;SDS011;29738;51.234;5.484;2022-08-04T15:22:50;8.10;;;3.78;;
44068;SDS011;29738;51.234;5.484;2022-08-04T15:25:16;11.52;;;3.90;;
44068;SDS011;29738;51.234;5.484;2022-08-04T15:27:44;7.93;;;3.17;;
44068;SDS011;29738;51.234;5.484;2022-08-04T15:30:13;7.95;;;3.92;;
44068;SDS011;29738;51.234;5.484;2022-08-04T15:32:49;10.02;;;4.57;;
44068;SDS011;29738;51.234;5.484;2022-08-04T15:35:23;9.70;;;3.72;;
44068;SDS011;29738;51.234;5.484;2022-08-04T15:40:35;8.00;;;3.45;;
44068;SDS011;29738;51.234;5.484;2022-08-04T15:46:13;8.35;;;3.55;;
44068;SDS011;29738;51.234;5.484;2022-08-04T15:48:39;7.82;;;3.10;;
44068;SDS011;29738;51.234;5.484;2022-08-04T15:51:10;8.80;;;3.50;;
44068;SDS011;29738;51.234;5.484;2022-08-04T15:56:50;10.45;;;3.75;;
44068;SDS011;29738;51.234;5.484;2022-08-04T15:58:51;12.02;;;3.55;;
44068;SDS011;29738;51.234;5.484;2022-08-04T16:01:21;8.45;;;3.65;;
44068;SDS011;29738;51.234;5.484;2022-08-04T16:03:51;10.25;;;4.05;;
44068;SDS011;29738;51.234;5.484;2022-08-04T16:16:28;10.10;;;4.65;;
44068;SDS011;29738;51.234;5.484;2022-08-04T16:21:34;9.98;;;5.28;;
44068;SDS011;29738;51.234;5.484;2022-08-04T16:24:21;9.32;;;4.75;;
44068;SDS011;29738;51.234;5.484;2022-08-04T16:26:58;11.77;;;5.15;;
44068;SDS011;29738;51.234;5.484;2022-08-04T16:32:14;11.88;;;5.82;;
44068;SDS011;29738;51.234;5.484;2022-08-04T16:34:47;8.80;;;5.38;;
44068;SDS011;29738;51.234;5.484;2022-08-04T16:37:17;9.93;;;6.22;;
44068;SDS011;29738;51.234;5.484;2022-08-04T16:39:44;12.05;;;6.18;;
44068;SDS011;29738;51.234;5.484;2022-08-04T16:50:12;11.23;;;6.50;;
44068;SDS011;29738;51.234;5.484;2022-08-04T16:52:43;12.95;;;5.97;;
44068;SDS011;29738;51.234;5.484;2022-08-04T16:57:39;13.70;;;7.25;;
44068;SDS011;29738;51.234;5.484;2022-08-04T17:00:05;11.60;;;6.80;;
44068;SDS011;29738;51.234;5.484;2022-08-04T17:02:32;12.38;;;6.95;;
44068;SDS011;29738;51.234;5.484;2022-08-04T17:04:59;9.38;;;6.13;;
44068;SDS011;29738;51.234;5.484;2022-08-04T17:07:25;13.30;;;6.22;;
44068;SDS011;29738;51.234;5.484;2022-08-04T17:09:51;12.80;;;6.50;;
44068;SDS011;29738;51.234;5.484;2022-08-04T17:12:17;10.02;;;6.10;;
44068;SDS011;29738;51.234;5.484;2022-08-04T17:14:43;12.88;;;6.53;;
44068;SDS011;29738;51.234;5.484;2022-08-04T17:17:09;11.30;;;6.22;;
44068;SDS011;29738;51.234;5.484;2022-08-04T17:19:35;9.80;;;5.35;;
44068;SDS011;29738;51.234;5.484;2022-08-04T17:22:02;8.40;;;4.72;;
44068;SDS011;29738;51.234;5.484;2022-08-04T17:24:31;7.47;;;4.28;;
44068;SDS011;29738;51.234;5.484;2022-08-04T17:27:02;7.75;;;4.00;;
44068;SDS011;29738;51.234;5.484;2022-08-04T17:29:29;7.82;;;4.03;;
44068;SDS011;29738;51.234;5.484;2022-08-04T17:31:55;8.35;;;3.63;;
44068;SDS011;29738;51.234;5.484;2022-08-04T17:34:21;7.35;;;3.40;;
44068;SDS011;29738;51.234;5.484;2022-08-04T17:36:49;8.00;;;3.60;;
44068;SDS011;29738;51.234;5.484;2022-08-04T17:39:18;9.35;;;3.67;;
44068;SDS011;29738;51.234;5.484;2022-08-04T17:41:47;9.63;;;3.83;;
44068;SDS011;29738;51.234;5.484;2022-08-04T17:44:20;7.28;;;3.63;;
44068;SDS011;29738;51.234;5.484;2022-08-04T17:46:58;6.85;;;4.05;;
44068;SDS011;29738;51.234;5.484;2022-08-04T17:49:42;7.95;;;3.47;;
44068;SDS011;29738;51.234;5.484;2022-08-04T17:52:08;10.35;;;4.10;;
44068;SDS011;29738;51.234;5.484;2022-08-04T17:54:46;7.10;;;3.83;;
44068;SDS011;29738;51.234;5.484;2022-08-04T17:57:23;9.75;;;4.50;;
44068;SDS011;29738;51.234;5.484;2022-08-04T17:59:53;8.13;;;4.05;;
44068;SDS011;29738;51.234;5.484;2022-08-04T18:02:20;8.23;;;5.03;;
44068;SDS011;29738;51.234;5.484;2022-08-04T18:04:48;8.10;;;4.72;;
44068;SDS011;29738;51.234;5.484;2022-08-04T18:07:16;11.43;;;5.18;;
44068;SDS011;29738;51.234;5.484;2022-08-04T18:12:27;7.13;;;4.57;;
44068;SDS011;29738;51.234;5.484;2022-08-04T18:14:56;13.13;;;4.97;;
44068;SDS011;29738;51.234;5.484;2022-08-04T18:22:23;10.75;;;4.88;;
44068;SDS011;29738;51.234;5.484;2022-08-04T18:24:49;8.48;;;5.05;;
44068;SDS011;29738;51.234;5.484;2022-08-04T18:27:16;9.82;;;5.05;;
44068;SDS011;29738;51.234;5.484;2022-08-04T18:29:43;12.18;;;5.65;;
44068;SDS011;29738;51.234;5.484;2022-08-04T18:32:09;10.60;;;4.82;;
44068;SDS011;29738;51.234;5.484;2022-08-04T18:34:35;7.07;;;3.70;;
44068;SDS011;29738;51.234;5.484;2022-08-04T18:37:02;7.43;;;3.50;;
44068;SDS011;29738;51.234;5.484;2022-08-04T18:39:28;7.45;;;3.10;;
44068;SDS011;29738;51.234;5.484;2022-08-04T18:41:54;8.85;;;3.10;;
44068;SDS011;29738;51.234;5.484;2022-08-04T18:44:20;6.07;;;2.97;;
44068;SDS011;29738;51.234;5.484;2022-08-04T18:46:47;7.00;;;2.78;;
44068;SDS011;29738;51.234;5.484;2022-08-04T18:49:12;7.93;;;3.10;;
44068;SDS011;29738;51.234;5.484;2022-08-04T18:51:38;7.43;;;2.83;;
44068;SDS011;29738;51.234;5.484;2022-08-04T18:54:05;7.45;;;2.60;;
44068;SDS011;29738;51.234;5.484;2022-08-04T18:56:31;8.25;;;3.28;;
44068;SDS011;29738;51.234;5.484;2022-08-04T18:59:01;6.90;;;3.00;;
44068;SDS011;29738;51.234;5.484;2022-08-04T19:01:29;6.43;;;2.78;;
44068;SDS011;29738;51.234;5.484;2022-08-04T19:03:57;5.78;;;2.75;;
44068;SDS011;29738;51.234;5.484;2022-08-04T19:06:23;8.45;;;3.17;;
44068;SDS011;29738;51.234;5.484;2022-08-04T19:08:49;8.70;;;2.70;;
44068;SDS011;29738;51.234;5.484;2022-08-04T19:11:15;6.90;;;3.28;;
44068;SDS011;29738;51.234;5.484;2022-08-04T19:13:41;8.18;;;2.83;;
44068;SDS011;29738;51.234;5.484;2022-08-04T19:16:07;7.47;;;2.83;;
44068;SDS011;29738;51.234;5.484;2022-08-04T19:18:33;7.25;;;2.88;;
44068;SDS011;29738;51.234;5.484;2022-08-04T19:20:59;8.32;;;3.03;;
44068;SDS011;29738;51.234;5.484;2022-08-04T19:23:25;6.13;;;2.60;;
44068;SDS011;29738;51.234;5.484;2022-08-04T19:25:51;6.13;;;2.35;;
44068;SDS011;29738;51.234;5.484;2022-08-04T19:28:17;6.40;;;2.78;;
44068;SDS011;29738;51.234;5.484;2022-08-04T19:30:44;6.75;;;2.60;;
44068;SDS011;29738;51.234;5.484;2022-08-04T19:33:10;6.90;;;2.75;;
44068;SDS011;29738;51.234;5.484;2022-08-04T19:35:36;5.53;;;2.45;;
44068;SDS011;29738;51.234;5.484;2022-08-04T19:38:05;5.70;;;2.53;;
44068;SDS011;29738;51.234;5.484;2022-08-04T19:40:31;6.35;;;2.40;;
44068;SDS011;29738;51.234;5.484;2022-08-04T19:42:57;7.25;;;3.00;;
44068;SDS011;29738;51.234;5.484;2022-08-04T19:45:23;6.90;;;2.50;;
44068;SDS011;29738;51.234;5.484;2022-08-04T19:47:49;7.28;;;3.20;;
44068;SDS011;29738;51.234;5.484;2022-08-04T19:50:15;6.15;;;2.90;;
44068;SDS011;29738;51.234;5.484;2022-08-04T19:52:40;9.98;;;2.72;;
44068;SDS011;29738;51.234;5.484;2022-08-04T19:55:06;7.10;;;2.40;;
44068;SDS011;29738;51.234;5.484;2022-08-04T19:57:32;6.65;;;2.50;;